Detalii statie SOMALEX GHIMPATI [0000198E]

Toti senzorii

Date Temperatura solului [C]Precipitatii [mm]Voltaj baterie [mV]Leaf Wetness [Min]HC Air temperature [C]HC Relative humidity [%]Punctul de roua [C]
medieminmaxsumaultimatimpmedieminmaxmediemediemin
2020-01-21 22:00:00 0.5 0.4 0.6 0 6474 -1.43 -1.47 -1.4 0 0 0
2020-01-21 22:10:00 0.5 0.4 0.6 0 6464 -1.43 -1.44 -1.43 0 0 0
2020-01-21 22:20:00 0.5 0.4 0.6 0 6464 -1.29 -1.3 -1.28 0 0 0
2020-01-21 22:30:00 0.4 0.4 0.5 0 6474 -1.17 -1.2 -1.14 0 0 0
2020-01-21 22:40:00 0.4 0.4 0.4 0 6464 -1.29 -1.34 -1.25 0 0 0
2020-01-21 22:50:00 0.3 0.3 0.4 0 6464 -1.42 -1.45 -1.4 0 0 0
2020-01-21 23:00:00 0.5 0.5 0.5 0 6474 -1.26 -1.32 -1.21 0 0 0
2020-01-21 23:10:00 0.4 0.4 0.5 0 6464 -1.18 -1.2 -1.17 0 0 0
2020-01-21 23:20:00 0.4 0.4 0.4 0 6464 -1.37 -1.44 -1.3 0 0 0
2020-01-21 23:30:00 0.4 0.4 0.4 0 6464 -1.48 -1.5 -1.46 0 0 0
2020-01-21 23:40:00 0.4 0.4 0.4 0 6464 -1.43 -1.49 -1.38 0 0 0
2020-01-21 23:50:00 0.4 0.4 0.5 0 6464 -1.31 -1.39 -1.23 0 0 0
2020-01-22 00:00:00 0.3 0.2 0.4 0 6464 -1.52 -1.59 -1.45 0 0 0
2020-01-22 00:10:00 0.4 0.4 0.5 0 6434 -1.71 -1.73 -1.7 0 0 0
2020-01-22 00:20:00 0.4 0.4 0.5 0 6454 -1.76 -1.8 -1.72 0 0 0
2020-01-22 00:30:00 0.4 0.4 0.5 0 6464 -2 -2.09 -1.92 0 0 0
2020-01-22 00:40:00 0.4 0.4 0.4 0 6454 -2.24 -2.33 -2.16 0 0 0
2020-01-22 00:50:00 0.4 0.4 0.5 0 6454 -2.37 -2.41 -2.34 0 0 0
2020-01-22 01:00:00 0.3 0.2 0.4 0 6464 -2.43 -2.45 -2.41 0 0 0
2020-01-22 01:10:00 0.4 0.3 0.5 0 6454 -2.54 -2.58 -2.51 0 0 0
2020-01-22 01:20:00 0.3 0.3 0.3 0 6454 -2.67 -2.68 -2.66 0 0 0
2020-01-22 01:30:00 0.3 0.3 0.3 0 6454 -2.7 -2.73 -2.68 0 0 0
2020-01-22 01:40:00 0.3 0.3 0.3 0 6464 -2.76 -2.78 -2.75 0 0 0
2020-01-22 01:50:00 0.4 0.3 0.5 0 6454 -2.76 -2.8 -2.73 0 0 0
2020-01-22 02:00:00 0.3 0.3 0.3 0 6454 -2.86 -2.89 -2.84 0 0 0
2020-01-22 02:10:00 0.3 0.3 0.3 0 6444 -2.9 -2.91 -2.89 0 0 0
2020-01-22 02:20:00 0.3 0.3 0.3 0 6444 -2.86 -2.88 -2.84 0 0 0
2020-01-22 02:30:00 0.3 0.3 0.4 0 6454 -2.91 -2.93 -2.9 0 0 0
2020-01-22 02:40:00 0.3 0.3 0.4 0 6444 -2.95 -2.96 -2.95 0 0 0
2020-01-22 02:50:00 0.3 0.3 0.4 0 6444 -3.01 -3.03 -2.99 0 0 0
2020-01-22 03:00:00 0.3 0.3 0.4 0 6444 -3.07 -3.11 -3.04 0 0 0
2020-01-22 03:10:00 0.2 0.2 0.3 0 6444 -2.95 -2.98 -2.93 0 0 0
2020-01-22 03:20:00 0.3 0.3 0.4 0 6444 -3.01 -3.08 -2.95 0 0 0
2020-01-22 03:30:00 0.3 0.3 0.3 0 6454 -3.17 -3.18 -3.17 0 0 0
2020-01-22 03:40:00 0.3 0.3 0.3 0 6444 -3.21 -3.22 -3.21 0 0 0
2020-01-22 03:50:00 0.3 0.3 0.3 0 6444 -3.27 -3.28 -3.26 0 0 0
2020-01-22 04:00:00 0.4 0.4 0.4 0 6454 -3.28 -3.29 -3.28 0 0 0
2020-01-22 04:10:00 0.3 0.3 0.4 0 6434 -3.3 -3.31 -3.3 0 0 0
2020-01-22 04:20:00 0.3 0.3 0.3 0 6434 -3.36 -3.37 -3.36 0 0 0
2020-01-22 04:30:00 0.3 0.3 0.3 0 6444 -3.39 -3.43 -3.35 0 0 0
2020-01-22 04:40:00 0.3 0.2 0.4 0 6434 -3.48 -3.5 -3.46 0 0 0
2020-01-22 04:50:00 0.3 0.3 0.3 0 6444 -3.52 -3.53 -3.52 0 0 0
2020-01-22 05:00:00 0.3 0.3 0.3 0 6434 -3.51 -3.52 -3.51 0 0 0
2020-01-22 05:10:00 0.3 0.3 0.3 0 6434 -3.49 -3.5 -3.48 0 0 0
2020-01-22 05:20:00 0.4 0.3 0.5 0 6434 -3.48 -3.5 -3.47 0 0 0
2020-01-22 05:30:00 0.2 0.1 0.3 0 6434 -3.43 -3.44 -3.43 0 0 0
2020-01-22 05:40:00 0.1 0.1 0.1 0 6434 -3.46 -3.49 -3.44 0 0 0
2020-01-22 05:50:00 0.2 0.1 0.3 0 6444 -3.44 -3.48 -3.4 0 0 0